Terminal Aerodrome Forecast
Issued by NWS

Home | Current Version | Previous Version | Text Only | Print | Product List | Glossary On
Versions: 1 2 3 4 5 6 7 8 9 10 11 12 13 14 15 16
892
FTUS43 KJKL 211138
TAFSME
TAF
KSME 211138Z 2112/2212 VRB03KT 1/4SM FG OVC001
     FM211300 VRB03KT P6SM SCT040
     FM220400 00000KT 5SM BR SKC
     FM220900 00000KT 1/2SM FG OVC002=

USA.gov is the U.S. government's official web portal to all federal, state and local government web resources and services.